Portada
METAR-TAF:

METAR-TAF

Aeroports :

Billy Mitchell Airport

Hatteras, Carolina del Nord, Estats Units d'Amèrica

latitud: 35-13-56N, longitud: 075-37-21W, altitud: 5 m

Observació

L'informe es va fer fa 57 minuts, a les 23:51 UTC
Vent 7 kt del Sud/Sud-Oest
Temperatura 29°C
Humitat 74%
Pressió 1016 hPa
Visibilitat: 16.1 km
Cel clar

METAR: KHSE 102351Z AUTO 21007KT 10SM CLR 29/24 A3001 RMK AO2 SLP163 T02890244 10328 20289 57005

Hora: 20:48 (00:48 UTC)


TAF: manca

Observacions i pronòstics meteorològics de més de 4000 aeroports (METAR i TAF).

Les estacions disponibles són els punts grocs i vermells al mapa.

Posi el ratolí al punt desitjat per veure el nom de l'estació.

Feu clic per veure les observacions i els pronòstics meteorològics.

Per canviar el mapa: feu clic els botons verds amb una creu de color negre per apropar; al botó verd amb un guió per allunyar la imatge; o en les fletxes verdes per a mapes adjacents.


METAR-TAF: